sensor_id;sensor_type;location;lat;lon;timestamp;temperature;humidity
52245;DHT22;55759;51.586;-1.758;2022-08-19T00:00:13;18.90;90.70
52245;DHT22;55759;51.586;-1.758;2022-08-19T00:02:39;19.00;90.90
52245;DHT22;55759;51.586;-1.758;2022-08-19T00:05:05;18.90;90.70
52245;DHT22;55759;51.586;-1.758;2022-08-19T00:07:31;18.90;90.60
52245;DHT22;55759;51.586;-1.758;2022-08-19T00:09:56;18.90;90.70
52245;DHT22;55759;51.586;-1.758;2022-08-19T00:12:22;18.90;90.80
52245;DHT22;55759;51.586;-1.758;2022-08-19T00:14:48;18.90;90.70
52245;DHT22;55759;51.586;-1.758;2022-08-19T00:17:13;18.90;90.80
52245;DHT22;55759;51.586;-1.758;2022-08-19T00:19:39;18.90;90.90
52245;DHT22;55759;51.586;-1.758;2022-08-19T00:22:06;19.00;90.80
52245;DHT22;55759;51.586;-1.758;2022-08-19T00:24:33;19.00;90.80
52245;DHT22;55759;51.586;-1.758;2022-08-19T00:26:59;19.00;90.80
52245;DHT22;55759;51.586;-1.758;2022-08-19T00:29:27;19.00;90.80
52245;DHT22;55759;51.586;-1.758;2022-08-19T00:31:53;19.10;90.60
52245;DHT22;55759;51.586;-1.758;2022-08-19T00:34:20;19.10;90.70
52245;DHT22;55759;51.586;-1.758;2022-08-19T00:36:46;19.10;90.50
52245;DHT22;55759;51.586;-1.758;2022-08-19T00:39:12;19.10;90.40
52245;DHT22;55759;51.586;-1.758;2022-08-19T00:41:38;19.10;90.40
52245;DHT22;55759;51.586;-1.758;2022-08-19T00:44:07;19.00;90.30
52245;DHT22;55759;51.586;-1.758;2022-08-19T00:46:33;18.90;90.50
52245;DHT22;55759;51.586;-1.758;2022-08-19T00:49:01;18.90;90.70
52245;DHT22;55759;51.586;-1.758;2022-08-19T00:51:28;18.90;90.70
52245;DHT22;55759;51.586;-1.758;2022-08-19T00:53:55;18.80;91.00
52245;DHT22;55759;51.586;-1.758;2022-08-19T00:56:21;18.80;91.10
52245;DHT22;55759;51.586;-1.758;2022-08-19T00:58:47;18.80;91.40
52245;DHT22;55759;51.586;-1.758;2022-08-19T01:01:13;18.80;91.20
52245;DHT22;55759;51.586;-1.758;2022-08-19T01:03:41;18.80;91.30
52245;DHT22;55759;51.586;-1.758;2022-08-19T01:06:07;18.80;91.40
52245;DHT22;55759;51.586;-1.758;2022-08-19T01:08:33;18.80;91.40
52245;DHT22;55759;51.586;-1.758;2022-08-19T01:10:59;18.80;91.50
52245;DHT22;55759;51.586;-1.758;2022-08-19T01:13:26;18.90;91.60
52245;DHT22;55759;51.586;-1.758;2022-08-19T01:16:01;18.80;91.60
52245;DHT22;55759;51.586;-1.758;2022-08-19T01:18:27;18.90;91.70
52245;DHT22;55759;51.586;-1.758;2022-08-19T01:20:54;18.80;91.70
52245;DHT22;55759;51.586;-1.758;2022-08-19T01:23:21;18.80;91.70
52245;DHT22;55759;51.586;-1.758;2022-08-19T01:25:50;18.80;91.80
52245;DHT22;55759;51.586;-1.758;2022-08-19T01:28:24;18.80;91.90
52245;DHT22;55759;51.586;-1.758;2022-08-19T01:30:53;18.80;92.10
52245;DHT22;55759;51.586;-1.758;2022-08-19T01:33:19;18.80;92.10
52245;DHT22;55759;51.586;-1.758;2022-08-19T01:35:45;18.80;92.00
52245;DHT22;55759;51.586;-1.758;2022-08-19T01:38:19;18.70;91.80
52245;DHT22;55759;51.586;-1.758;2022-08-19T01:40:45;18.70;91.70
52245;DHT22;55759;51.586;-1.758;2022-08-19T01:43:11;18.60;91.70
52245;DHT22;55759;51.586;-1.758;2022-08-19T01:45:36;18.60;91.70
52245;DHT22;55759;51.586;-1.758;2022-08-19T01:48:05;18.40;91.40
52245;DHT22;55759;51.586;-1.758;2022-08-19T01:50:32;18.40;91.50
52245;DHT22;55759;51.586;-1.758;2022-08-19T01:52:58;18.40;91.60
52245;DHT22;55759;51.586;-1.758;2022-08-19T01:55:25;18.40;91.40
52245;DHT22;55759;51.586;-1.758;2022-08-19T01:57:52;18.40;91.50
52245;DHT22;55759;51.586;-1.758;2022-08-19T02:00:20;18.40;91.60
52245;DHT22;55759;51.586;-1.758;2022-08-19T02:02:47;18.30;91.50
52245;DHT22;55759;51.586;-1.758;2022-08-19T02:05:13;18.30;91.40
52245;DHT22;55759;51.586;-1.758;2022-08-19T02:07:39;18.30;91.70
52245;DHT22;55759;51.586;-1.758;2022-08-19T02:10:09;18.30;91.40
52245;DHT22;55759;51.586;-1.758;2022-08-19T02:12:34;18.20;91.60
52245;DHT22;55759;51.586;-1.758;2022-08-19T02:15:00;18.30;91.90
52245;DHT22;55759;51.586;-1.758;2022-08-19T02:17:27;18.30;92.00
52245;DHT22;55759;51.586;-1.758;2022-08-19T02:19:54;18.20;91.90
52245;DHT22;55759;51.586;-1.758;2022-08-19T02:22:20;18.20;91.60
52245;DHT22;55759;51.586;-1.758;2022-08-19T02:24:48;18.20;91.40
52245;DHT22;55759;51.586;-1.758;2022-08-19T02:27:14;18.10;91.40
52245;DHT22;55759;51.586;-1.758;2022-08-19T02:29:40;18.10;91.40
52245;DHT22;55759;51.586;-1.758;2022-08-19T02:32:06;18.10;91.40
52245;DHT22;55759;51.586;-1.758;2022-08-19T02:34:32;18.00;91.70
52245;DHT22;55759;51.586;-1.758;2022-08-19T02:36:57;18.10;91.90
52245;DHT22;55759;51.586;-1.758;2022-08-19T02:39:23;18.10;91.80
52245;DHT22;55759;51.586;-1.758;2022-08-19T02:41:49;18.10;91.60
52245;DHT22;55759;51.586;-1.758;2022-08-19T02:44:15;18.00;91.50
52245;DHT22;55759;51.586;-1.758;2022-08-19T02:46:41;17.90;91.30
52245;DHT22;55759;51.586;-1.758;2022-08-19T02:49:08;17.80;91.40
52245;DHT22;55759;51.586;-1.758;2022-08-19T02:51:35;17.70;91.60
52245;DHT22;55759;51.586;-1.758;2022-08-19T02:54:02;17.70;91.50
52245;DHT22;55759;51.586;-1.758;2022-08-19T02:56:28;17.70;91.50
52245;DHT22;55759;51.586;-1.758;2022-08-19T02:58:54;17.70;91.60
52245;DHT22;55759;51.586;-1.758;2022-08-19T03:01:24;17.60;91.70
52245;DHT22;55759;51.586;-1.758;2022-08-19T03:03:50;17.60;91.70
52245;DHT22;55759;51.586;-1.758;2022-08-19T03:06:19;17.50;91.70
52245;DHT22;55759;51.586;-1.758;2022-08-19T03:08:46;17.50;91.80
52245;DHT22;55759;51.586;-1.758;2022-08-19T03:11:13;17.40;91.90
52245;DHT22;55759;51.586;-1.758;2022-08-19T03:13:39;17.40;91.90
52245;DHT22;55759;51.586;-1.758;2022-08-19T03:16:05;17.30;92.00
52245;DHT22;55759;51.586;-1.758;2022-08-19T03:18:31;17.30;92.00
52245;DHT22;55759;51.586;-1.758;2022-08-19T03:20:56;17.30;92.10
52245;DHT22;55759;51.586;-1.758;2022-08-19T03:23:22;17.20;92.10
52245;DHT22;55759;51.586;-1.758;2022-08-19T03:25:49;17.10;92.10
52245;DHT22;55759;51.586;-1.758;2022-08-19T03:28:15;17.10;92.20
52245;DHT22;55759;51.586;-1.758;2022-08-19T03:30:41;17.10;92.30
52245;DHT22;55759;51.586;-1.758;2022-08-19T03:33:10;17.10;92.30
52245;DHT22;55759;51.586;-1.758;2022-08-19T03:35:37;17.00;92.30
52245;DHT22;55759;51.586;-1.758;2022-08-19T03:38:04;17.00;92.30
52245;DHT22;55759;51.586;-1.758;2022-08-19T03:40:30;17.00;92.30
52245;DHT22;55759;51.586;-1.758;2022-08-19T03:42:56;17.00;92.40
52245;DHT22;55759;51.586;-1.758;2022-08-19T03:45:22;16.90;92.40
52245;DHT22;55759;51.586;-1.758;2022-08-19T03:47:48;16.90;92.40
52245;DHT22;55759;51.586;-1.758;2022-08-19T03:50:13;16.90;92.40
52245;DHT22;55759;51.586;-1.758;2022-08-19T03:52:39;16.80;92.40
52245;DHT22;55759;51.586;-1.758;2022-08-19T03:55:05;16.80;92.50
52245;DHT22;55759;51.586;-1.758;2022-08-19T03:57:31;16.80;92.50
52245;DHT22;55759;51.586;-1.758;2022-08-19T03:59:57;16.70;92.50
52245;DHT22;55759;51.586;-1.758;2022-08-19T04:02:23;16.80;92.60
52245;DHT22;55759;51.586;-1.758;2022-08-19T04:04:48;16.80;92.70
52245;DHT22;55759;51.586;-1.758;2022-08-19T04:07:29;16.80;92.80
52245;DHT22;55759;51.586;-1.758;2022-08-19T04:09:57;16.80;92.60
52245;DHT22;55759;51.586;-1.758;2022-08-19T04:12:24;16.80;92.40
52245;DHT22;55759;51.586;-1.758;2022-08-19T04:14:50;16.80;92.30
52245;DHT22;55759;51.586;-1.758;2022-08-19T04:17:15;16.80;92.20
52245;DHT22;55759;51.586;-1.758;2022-08-19T04:19:41;16.80;92.10
52245;DHT22;55759;51.586;-1.758;2022-08-19T04:22:08;16.80;91.90
52245;DHT22;55759;51.586;-1.758;2022-08-19T04:24:35;16.70;91.80
52245;DHT22;55759;51.586;-1.758;2022-08-19T04:27:01;16.70;91.90
52245;DHT22;55759;51.586;-1.758;2022-08-19T04:29:27;16.70;91.80
52245;DHT22;55759;51.586;-1.758;2022-08-19T04:31:55;16.60;91.80
52245;DHT22;55759;51.586;-1.758;2022-08-19T04:34:22;16.60;91.90
52245;DHT22;55759;51.586;-1.758;2022-08-19T04:36:49;16.60;91.80
52245;DHT22;55759;51.586;-1.758;2022-08-19T04:39:17;16.60;91.80
52245;DHT22;55759;51.586;-1.758;2022-08-19T04:41:43;16.60;91.90
52245;DHT22;55759;51.586;-1.758;2022-08-19T04:44:30;16.60;91.90
52245;DHT22;55759;51.586;-1.758;2022-08-19T04:46:59;16.60;91.80
52245;DHT22;55759;51.586;-1.758;2022-08-19T04:49:25;16.60;91.60
52245;DHT22;55759;51.586;-1.758;2022-08-19T04:51:54;16.60;91.30
52245;DHT22;55759;51.586;-1.758;2022-08-19T04:54:20;16.50;91.20
52245;DHT22;55759;51.586;-1.758;2022-08-19T04:56:49;16.50;91.20
52245;DHT22;55759;51.586;-1.758;2022-08-19T04:59:21;16.50;91.10
52245;DHT22;55759;51.586;-1.758;2022-08-19T05:01:47;16.50;91.20
52245;DHT22;55759;51.586;-1.758;2022-08-19T05:04:15;16.50;90.50
52245;DHT22;55759;51.586;-1.758;2022-08-19T05:06:42;16.40;90.60
52245;DHT22;55759;51.586;-1.758;2022-08-19T05:09:08;16.40;90.70
52245;DHT22;55759;51.586;-1.758;2022-08-19T05:11:35;16.30;90.70
52245;DHT22;55759;51.586;-1.758;2022-08-19T05:14:04;16.20;90.90
52245;DHT22;55759;51.586;-1.758;2022-08-19T05:16:30;16.20;90.90
52245;DHT22;55759;51.586;-1.758;2022-08-19T05:18:56;16.20;91.10
52245;DHT22;55759;51.586;-1.758;2022-08-19T05:21:43;16.10;91.20
52245;DHT22;55759;51.586;-1.758;2022-08-19T05:24:34;16.20;91.50
52245;DHT22;55759;51.586;-1.758;2022-08-19T05:27:00;16.30;91.50
52245;DHT22;55759;51.586;-1.758;2022-08-19T05:29:28;16.30;91.40
52245;DHT22;55759;51.586;-1.758;2022-08-19T05:31:56;16.30;91.30
52245;DHT22;55759;51.586;-1.758;2022-08-19T05:34:23;16.30;91.60
52245;DHT22;55759;51.586;-1.758;2022-08-19T05:36:52;16.40;91.70
52245;DHT22;55759;51.586;-1.758;2022-08-19T05:39:23;16.50;91.60
52245;DHT22;55759;51.586;-1.758;2022-08-19T05:41:50;16.50;91.40
52245;DHT22;55759;51.586;-1.758;2022-08-19T05:44:23;16.60;91.20
52245;DHT22;55759;51.586;-1.758;2022-08-19T05:46:49;16.60;91.10
52245;DHT22;55759;51.586;-1.758;2022-08-19T05:49:21;16.60;91.10
52245;DHT22;55759;51.586;-1.758;2022-08-19T05:51:47;16.60;91.00
52245;DHT22;55759;51.586;-1.758;2022-08-19T05:54:13;16.60;90.70
52245;DHT22;55759;51.586;-1.758;2022-08-19T05:56:40;16.70;90.70
52245;DHT22;55759;51.586;-1.758;2022-08-19T05:59:06;16.80;90.20
52245;DHT22;55759;51.586;-1.758;2022-08-19T06:01:34;16.90;89.60
52245;DHT22;55759;51.586;-1.758;2022-08-19T06:04:00;17.00;89.10
52245;DHT22;55759;51.586;-1.758;2022-08-19T06:06:25;17.00;88.40
52245;DHT22;55759;51.586;-1.758;2022-08-19T06:08:51;17.10;87.40
52245;DHT22;55759;51.586;-1.758;2022-08-19T06:11:19;17.10;86.80
52245;DHT22;55759;51.586;-1.758;2022-08-19T06:13:45;17.30;87.10
52245;DHT22;55759;51.586;-1.758;2022-08-19T06:16:13;17.30;86.00
52245;DHT22;55759;51.586;-1.758;2022-08-19T06:18:46;17.30;85.60
52245;DHT22;55759;51.586;-1.758;2022-08-19T06:21:11;17.30;85.60
52245;DHT22;55759;51.586;-1.758;2022-08-19T06:23:37;17.20;85.60
52245;DHT22;55759;51.586;-1.758;2022-08-19T06:26:04;17.10;86.20
52245;DHT22;55759;51.586;-1.758;2022-08-19T06:28:29;16.90;86.20
52245;DHT22;55759;51.586;-1.758;2022-08-19T06:30:58;16.80;86.50
52245;DHT22;55759;51.586;-1.758;2022-08-19T06:33:26;16.70;86.70
52245;DHT22;55759;51.586;-1.758;2022-08-19T06:35:52;16.70;86.80
52245;DHT22;55759;51.586;-1.758;2022-08-19T06:38:25;16.70;86.70
52245;DHT22;55759;51.586;-1.758;2022-08-19T06:40:50;16.80;86.90
52245;DHT22;55759;51.586;-1.758;2022-08-19T06:43:18;16.70;86.30
52245;DHT22;55759;51.586;-1.758;2022-08-19T06:45:44;16.80;85.60
52245;DHT22;55759;51.586;-1.758;2022-08-19T06:48:09;16.80;85.40
52245;DHT22;55759;51.586;-1.758;2022-08-19T06:50:35;16.80;85.10
52245;DHT22;55759;51.586;-1.758;2022-08-19T06:53:02;16.80;84.80
52245;DHT22;55759;51.586;-1.758;2022-08-19T06:55:28;16.90;85.40
52245;DHT22;55759;51.586;-1.758;2022-08-19T06:57:57;16.90;84.60
52245;DHT22;55759;51.586;-1.758;2022-08-19T07:00:29;16.90;84.60
52245;DHT22;55759;51.586;-1.758;2022-08-19T07:02:57;16.90;84.70
52245;DHT22;55759;51.586;-1.758;2022-08-19T07:05:29;16.90;84.10
52245;DHT22;55759;51.586;-1.758;2022-08-19T07:07:55;16.90;83.00
52245;DHT22;55759;51.586;-1.758;2022-08-19T07:10:21;17.00;83.20
52245;DHT22;55759;51.586;-1.758;2022-08-19T07:12:47;17.10;82.90
52245;DHT22;55759;51.586;-1.758;2022-08-19T07:15:14;17.10;83.00
52245;DHT22;55759;51.586;-1.758;2022-08-19T07:17:40;17.10;82.40
52245;DHT22;55759;51.586;-1.758;2022-08-19T07:20:08;17.10;81.30
52245;DHT22;55759;51.586;-1.758;2022-08-19T07:22:34;17.20;80.70
52245;DHT22;55759;51.586;-1.758;2022-08-19T07:25:10;17.30;80.10
52245;DHT22;55759;51.586;-1.758;2022-08-19T07:27:41;17.30;77.90
52245;DHT22;55759;51.586;-1.758;2022-08-19T07:30:07;17.40;77.70
52245;DHT22;55759;51.586;-1.758;2022-08-19T07:32:33;17.30;75.50
52245;DHT22;55759;51.586;-1.758;2022-08-19T07:34:58;17.40;74.00
52245;DHT22;55759;51.586;-1.758;2022-08-19T07:37:25;17.40;73.70
52245;DHT22;55759;51.586;-1.758;2022-08-19T07:39:59;17.40;73.30
52245;DHT22;55759;51.586;-1.758;2022-08-19T07:42:25;17.50;72.00
52245;DHT22;55759;51.586;-1.758;2022-08-19T07:44:51;17.50;70.10
52245;DHT22;55759;51.586;-1.758;2022-08-19T07:47:17;17.60;70.60
52245;DHT22;55759;51.586;-1.758;2022-08-19T07:49:43;17.70;70.60
52245;DHT22;55759;51.586;-1.758;2022-08-19T07:52:09;17.70;70.70
52245;DHT22;55759;51.586;-1.758;2022-08-19T07:54:36;17.70;66.80
52245;DHT22;55759;51.586;-1.758;2022-08-19T07:57:03;17.70;67.70
52245;DHT22;55759;51.586;-1.758;2022-08-19T07:59:36;17.70;67.30
52245;DHT22;55759;51.586;-1.758;2022-08-19T08:02:02;17.70;67.30
52245;DHT22;55759;51.586;-1.758;2022-08-19T08:04:28;17.80;66.60
52245;DHT22;55759;51.586;-1.758;2022-08-19T08:07:12;17.80;67.00
52245;DHT22;55759;51.586;-1.758;2022-08-19T08:09:57;17.90;65.90
52245;DHT22;55759;51.586;-1.758;2022-08-19T08:12:26;18.00;66.50
52245;DHT22;55759;51.586;-1.758;2022-08-19T08:14:54;18.10;66.20
52245;DHT22;55759;51.586;-1.758;2022-08-19T08:17:21;18.10;66.00
52245;DHT22;55759;51.586;-1.758;2022-08-19T08:19:50;18.20;66.30
52245;DHT22;55759;51.586;-1.758;2022-08-19T08:22:17;18.20;67.30
52245;DHT22;55759;51.586;-1.758;2022-08-19T08:25:22;18.20;67.90
52245;DHT22;55759;51.586;-1.758;2022-08-19T08:27:48;18.20;67.20
52245;DHT22;55759;51.586;-1.758;2022-08-19T08:30:16;18.30;64.60
52245;DHT22;55759;51.586;-1.758;2022-08-19T08:32:45;18.40;64.10
52245;DHT22;55759;51.586;-1.758;2022-08-19T08:35:18;18.30;61.90
52245;DHT22;55759;51.586;-1.758;2022-08-19T08:37:44;18.40;62.60
52245;DHT22;55759;51.586;-1.758;2022-08-19T08:40:19;18.40;63.80
52245;DHT22;55759;51.586;-1.758;2022-08-19T08:42:51;18.50;62.60
52245;DHT22;55759;51.586;-1.758;2022-08-19T08:45:21;18.60;62.20
52245;DHT22;55759;51.586;-1.758;2022-08-19T08:47:51;18.70;62.00
52245;DHT22;55759;51.586;-1.758;2022-08-19T08:50:34;18.70;61.20
52245;DHT22;55759;51.586;-1.758;2022-08-19T08:53:03;18.80;62.60
52245;DHT22;55759;51.586;-1.758;2022-08-19T08:55:30;18.80;62.30
52245;DHT22;55759;51.586;-1.758;2022-08-19T09:00:34;19.00;61.00
52245;DHT22;55759;51.586;-1.758;2022-08-19T09:03:00;19.10;60.70
52245;DHT22;55759;51.586;-1.758;2022-08-19T09:05:34;19.10;59.90
52245;DHT22;55759;51.586;-1.758;2022-08-19T09:08:07;19.30;60.50
52245;DHT22;55759;51.586;-1.758;2022-08-19T09:10:37;19.60;58.60
52245;DHT22;55759;51.586;-1.758;2022-08-19T09:15:29;19.80;57.20
52245;DHT22;55759;51.586;-1.758;2022-08-19T09:18:01;19.70;57.20
52245;DHT22;55759;51.586;-1.758;2022-08-19T09:20:28;19.80;53.30
52245;DHT22;55759;51.586;-1.758;2022-08-19T09:22:54;20.00;52.10
52245;DHT22;55759;51.586;-1.758;2022-08-19T09:25:20;20.00;54.70
52245;DHT22;55759;51.586;-1.758;2022-08-19T09:27:50;19.90;52.40
52245;DHT22;55759;51.586;-1.758;2022-08-19T09:30:19;19.80;53.30
52245;DHT22;55759;51.586;-1.758;2022-08-19T09:32:47;19.70;53.80
52245;DHT22;55759;51.586;-1.758;2022-08-19T09:35:13;19.70;53.90
52245;DHT22;55759;51.586;-1.758;2022-08-19T09:37:39;19.70;50.70
52245;DHT22;55759;51.586;-1.758;2022-08-19T09:40:06;19.80;51.10
52245;DHT22;55759;51.586;-1.758;2022-08-19T09:42:32;19.90;53.00
52245;DHT22;55759;51.586;-1.758;2022-08-19T09:44:59;19.90;52.60
52245;DHT22;55759;51.586;-1.758;2022-08-19T09:47:24;19.90;50.50
52245;DHT22;55759;51.586;-1.758;2022-08-19T09:49:56;19.80;50.70
52245;DHT22;55759;51.586;-1.758;2022-08-19T09:52:22;19.80;51.10
52245;DHT22;55759;51.586;-1.758;2022-08-19T09:54:51;19.80;52.70
52245;DHT22;55759;51.586;-1.758;2022-08-19T09:57:17;19.80;51.30
52245;DHT22;55759;51.586;-1.758;2022-08-19T09:59:42;19.90;50.90
52245;DHT22;55759;51.586;-1.758;2022-08-19T10:02:09;20.10;50.30
52245;DHT22;55759;51.586;-1.758;2022-08-19T10:04:35;20.20;49.20
52245;DHT22;55759;51.586;-1.758;2022-08-19T10:07:26;20.30;48.80
52245;DHT22;55759;51.586;-1.758;2022-08-19T10:09:51;20.50;48.30
52245;DHT22;55759;51.586;-1.758;2022-08-19T10:12:17;20.60;46.30
52245;DHT22;55759;51.586;-1.758;2022-08-19T10:14:42;20.70;49.70
52245;DHT22;55759;51.586;-1.758;2022-08-19T10:17:08;20.70;47.40
52245;DHT22;55759;51.586;-1.758;2022-08-19T10:19:34;20.80;46.80
52245;DHT22;55759;51.586;-1.758;2022-08-19T10:22:04;20.80;47.60
52245;DHT22;55759;51.586;-1.758;2022-08-19T10:24:30;20.90;50.10
52245;DHT22;55759;51.586;-1.758;2022-08-19T10:26:56;20.90;47.50
52245;DHT22;55759;51.586;-1.758;2022-08-19T10:29:22;21.00;46.70
52245;DHT22;55759;51.586;-1.758;2022-08-19T10:31:48;21.10;46.80
52245;DHT22;55759;51.586;-1.758;2022-08-19T10:34:13;21.40;48.60
52245;DHT22;55759;51.586;-1.758;2022-08-19T10:36:39;21.50;46.20
52245;DHT22;55759;51.586;-1.758;2022-08-19T10:39:06;21.50;44.90
52245;DHT22;55759;51.586;-1.758;2022-08-19T10:41:34;21.50;44.80
52245;DHT22;55759;51.586;-1.758;2022-08-19T10:44:03;21.70;44.50
52245;DHT22;55759;51.586;-1.758;2022-08-19T10:46:33;22.20;45.30
52245;DHT22;55759;51.586;-1.758;2022-08-19T10:49:03;22.60;42.80
52245;DHT22;55759;51.586;-1.758;2022-08-19T10:51:29;22.80;42.10
52245;DHT22;55759;51.586;-1.758;2022-08-19T10:54:13;23.10;41.70
52245;DHT22;55759;51.586;-1.758;2022-08-19T10:56:38;23.50;41.20
52245;DHT22;55759;51.586;-1.758;2022-08-19T10:59:17;23.60;41.20
52245;DHT22;55759;51.586;-1.758;2022-08-19T11:01:45;23.30;42.50
52245;DHT22;55759;51.586;-1.758;2022-08-19T11:04:11;23.20;42.50
52245;DHT22;55759;51.586;-1.758;2022-08-19T11:06:45;23.10;41.40
52245;DHT22;55759;51.586;-1.758;2022-08-19T11:09:19;23.20;41.90
52245;DHT22;55759;51.586;-1.758;2022-08-19T11:11:45;23.50;43.00
52245;DHT22;55759;51.586;-1.758;2022-08-19T11:14:14;24.10;41.30
52245;DHT22;55759;51.586;-1.758;2022-08-19T11:16:40;24.60;40.40
52245;DHT22;55759;51.586;-1.758;2022-08-19T11:21:55;25.10;37.40
52245;DHT22;55759;51.586;-1.758;2022-08-19T11:24:22;25.60;38.40
52245;DHT22;55759;51.586;-1.758;2022-08-19T11:26:52;26.70;36.00
52245;DHT22;55759;51.586;-1.758;2022-08-19T11:29:19;28.20;34.50
52245;DHT22;55759;51.586;-1.758;2022-08-19T11:31:46;29.70;32.60
52245;DHT22;55759;51.586;-1.758;2022-08-19T11:34:15;30.90;31.10
52245;DHT22;55759;51.586;-1.758;2022-08-19T11:36:45;32.00;28.80
52245;DHT22;55759;51.586;-1.758;2022-08-19T11:39:12;33.00;27.70
52245;DHT22;55759;51.586;-1.758;2022-08-19T11:41:38;33.80;29.10
52245;DHT22;55759;51.586;-1.758;2022-08-19T11:44:04;33.10;29.00
52245;DHT22;55759;51.586;-1.758;2022-08-19T11:46:30;31.30;29.30
52245;DHT22;55759;51.586;-1.758;2022-08-19T11:48:56;29.60;31.80
52245;DHT22;55759;51.586;-1.758;2022-08-19T11:51:23;29.10;34.20
52245;DHT22;55759;51.586;-1.758;2022-08-19T11:53:50;31.00;30.30
52245;DHT22;55759;51.586;-1.758;2022-08-19T11:56:16;32.80;28.00
52245;DHT22;55759;51.586;-1.758;2022-08-19T11:58:42;34.40;28.20
52245;DHT22;55759;51.586;-1.758;2022-08-19T12:01:16;35.90;24.90
52245;DHT22;55759;51.586;-1.758;2022-08-19T12:03:45;36.70;23.20
52245;DHT22;55759;51.586;-1.758;2022-08-19T12:06:15;37.10;25.30
52245;DHT22;55759;51.586;-1.758;2022-08-19T12:08:55;36.50;25.40
52245;DHT22;55759;51.586;-1.758;2022-08-19T12:11:21;35.20;25.20
52245;DHT22;55759;51.586;-1.758;2022-08-19T12:13:47;32.80;28.30
52245;DHT22;55759;51.586;-1.758;2022-08-19T12:16:14;30.90;32.50
52245;DHT22;55759;51.586;-1.758;2022-08-19T12:18:40;29.60;33.10
52245;DHT22;55759;51.586;-1.758;2022-08-19T12:21:15;29.30;31.70
52245;DHT22;55759;51.586;-1.758;2022-08-19T12:23:44;30.30;33.20
52245;DHT22;55759;51.586;-1.758;2022-08-19T12:26:35;31.50;29.10
52245;DHT22;55759;51.586;-1.758;2022-08-19T12:29:01;33.30;26.00
52245;DHT22;55759;51.586;-1.758;2022-08-19T12:31:27;34.40;25.00
52245;DHT22;55759;51.586;-1.758;2022-08-19T12:33:53;36.10;25.30
52245;DHT22;55759;51.586;-1.758;2022-08-19T12:36:19;37.50;24.60
52245;DHT22;55759;51.586;-1.758;2022-08-19T12:38:45;37.00;24.50
52245;DHT22;55759;51.586;-1.758;2022-08-19T12:41:12;37.50;21.80
52245;DHT22;55759;51.586;-1.758;2022-08-19T12:44:01;38.10;25.00
52245;DHT22;55759;51.586;-1.758;2022-08-19T12:46:27;39.40;20.60
52245;DHT22;55759;51.586;-1.758;2022-08-19T12:48:53;40.00;20.00
52245;DHT22;55759;51.586;-1.758;2022-08-19T12:51:19;40.60;19.60
52245;DHT22;55759;51.586;-1.758;2022-08-19T12:53:45;40.40;21.50
52245;DHT22;55759;51.586;-1.758;2022-08-19T12:56:11;40.60;21.90
52245;DHT22;55759;51.586;-1.758;2022-08-19T12:58:39;40.10;21.40
52245;DHT22;55759;51.586;-1.758;2022-08-19T13:01:10;39.30;22.20
52245;DHT22;55759;51.586;-1.758;2022-08-19T13:03:36;37.10;26.40
52245;DHT22;55759;51.586;-1.758;2022-08-19T13:06:04;34.50;26.90
52245;DHT22;55759;51.586;-1.758;2022-08-19T13:08:29;32.00;31.10
52245;DHT22;55759;51.586;-1.758;2022-08-19T13:10:57;30.40;32.70
52245;DHT22;55759;51.586;-1.758;2022-08-19T13:13:33;29.10;33.50
52245;DHT22;55759;51.586;-1.758;2022-08-19T13:16:02;28.30;34.70
52245;DHT22;55759;51.586;-1.758;2022-08-19T13:18:28;28.40;38.10
52245;DHT22;55759;51.586;-1.758;2022-08-19T13:20:55;31.10;35.50
52245;DHT22;55759;51.586;-1.758;2022-08-19T13:23:24;34.20;28.50
52245;DHT22;55759;51.586;-1.758;2022-08-19T13:25:57;36.30;23.90
52245;DHT22;55759;51.586;-1.758;2022-08-19T13:28:32;37.90;20.70
52245;DHT22;55759;51.586;-1.758;2022-08-19T13:31:17;38.80;21.60
52245;DHT22;55759;51.586;-1.758;2022-08-19T13:34:02;38.90;21.50
52245;DHT22;55759;51.586;-1.758;2022-08-19T13:36:34;38.10;22.70
52245;DHT22;55759;51.586;-1.758;2022-08-19T13:39:06;37.50;25.10
52245;DHT22;55759;51.586;-1.758;2022-08-19T13:41:35;38.30;25.30
52245;DHT22;55759;51.586;-1.758;2022-08-19T13:44:01;37.50;23.60
52245;DHT22;55759;51.586;-1.758;2022-08-19T13:46:27;36.60;24.00
52245;DHT22;55759;51.586;-1.758;2022-08-19T13:49:05;37.40;23.70
52245;DHT22;55759;51.586;-1.758;2022-08-19T13:51:43;37.40;22.40
52245;DHT22;55759;51.586;-1.758;2022-08-19T13:54:09;35.40;24.30
52245;DHT22;55759;51.586;-1.758;2022-08-19T13:56:39;33.50;29.50
52245;DHT22;55759;51.586;-1.758;2022-08-19T13:59:05;32.60;33.40
52245;DHT22;55759;51.586;-1.758;2022-08-19T14:01:31;32.90;27.50
52245;DHT22;55759;51.586;-1.758;2022-08-19T14:04:02;33.00;33.00
52245;DHT22;55759;51.586;-1.758;2022-08-19T14:06:28;32.50;28.20
52245;DHT22;55759;51.586;-1.758;2022-08-19T14:08:53;31.30;30.20
52245;DHT22;55759;51.586;-1.758;2022-08-19T14:11:19;30.30;31.00
52245;DHT22;55759;51.586;-1.758;2022-08-19T14:13:44;29.60;29.90
52245;DHT22;55759;51.586;-1.758;2022-08-19T14:16:13;31.30;32.00
52245;DHT22;55759;51.586;-1.758;2022-08-19T14:18:39;33.60;29.00
52245;DHT22;55759;51.586;-1.758;2022-08-19T14:21:07;35.70;29.50
52245;DHT22;55759;51.586;-1.758;2022-08-19T14:23:42;37.20;26.40
52245;DHT22;55759;51.586;-1.758;2022-08-19T14:26:09;38.80;27.00
52245;DHT22;55759;51.586;-1.758;2022-08-19T14:28:35;40.10;26.00
52245;DHT22;55759;51.586;-1.758;2022-08-19T14:31:00;40.60;23.00
52245;DHT22;55759;51.586;-1.758;2022-08-19T14:33:32;39.30;24.10
52245;DHT22;55759;51.586;-1.758;2022-08-19T14:36:00;37.50;24.10
52245;DHT22;55759;51.586;-1.758;2022-08-19T14:38:26;35.10;30.10
52245;DHT22;55759;51.586;-1.758;2022-08-19T14:43:40;33.60;32.40
52245;DHT22;55759;51.586;-1.758;2022-08-19T14:46:10;33.50;29.70
52245;DHT22;55759;51.586;-1.758;2022-08-19T14:48:37;33.40;32.40
52245;DHT22;55759;51.586;-1.758;2022-08-19T14:51:11;35.50;26.30
52245;DHT22;55759;51.586;-1.758;2022-08-19T14:53:39;37.70;30.30
52245;DHT22;55759;51.586;-1.758;2022-08-19T14:56:14;38.80;26.90
52245;DHT22;55759;51.586;-1.758;2022-08-19T14:58:46;39.80;26.90
52245;DHT22;55759;51.586;-1.758;2022-08-19T15:01:19;39.80;25.30
52245;DHT22;55759;51.586;-1.758;2022-08-19T15:03:46;40.10;23.40
52245;DHT22;55759;51.586;-1.758;2022-08-19T15:06:14;39.10;24.70
52245;DHT22;55759;51.586;-1.758;2022-08-19T15:08:45;37.50;29.20
52245;DHT22;55759;51.586;-1.758;2022-08-19T15:11:16;38.70;28.50
52245;DHT22;55759;51.586;-1.758;2022-08-19T15:14:11;39.70;21.20
52245;DHT22;55759;51.586;-1.758;2022-08-19T15:16:37;39.00;24.00
52245;DHT22;55759;51.586;-1.758;2022-08-19T15:19:06;37.10;23.60
52245;DHT22;55759;51.586;-1.758;2022-08-19T15:21:38;36.10;27.90
52245;DHT22;55759;51.586;-1.758;2022-08-19T15:24:07;35.30;32.90
52245;DHT22;55759;51.586;-1.758;2022-08-19T15:26:35;36.80;24.80
52245;DHT22;55759;51.586;-1.758;2022-08-19T15:29:01;38.00;25.60
52245;DHT22;55759;51.586;-1.758;2022-08-19T15:31:48;37.30;31.10